Terminal Aerodrome Forecast
Issued by NWS Sterling, VA

Current Version | Previous Version | Graphics & Text | Print | Product List | Glossary On
Versions: 1 2 3 4 5 6 7 8 9 10 11 12 13 14 15 16 17 18 19 20 21 22 23 24 25
000
FTUS41 KLWX 251741
TAFDCA
TAF
KDCA 251741Z 2518/2618 16009KT P6SM OVC050
     FM252000 18008G16KT P6SM BKN025 OVC050
     FM252300 18006KT P6SM BKN025 WS020/21040KT
     FM260600 19006KT 5SM -SHRA BR BKN015 OVC025 WS020/21040KT
     FM261000 19006KT 5SM -SHRA BR BKN008 OVC015
     FM261300 19008KT P6SM BKN015
     FM261700 21012G22KT P6SM BKN050=

USA.gov is the U.S. government's official web portal to all federal, state and local government web resources and services.